sensor_id;sensor_type;location;lat;lon;timestamp;P1;durP1;ratioP1;P2;durP2;ratioP2
19951;SDS011;10137;49.406;19.484;2022-12-11T00:01:36;9.53;;;4.27;;
19951;SDS011;10137;49.406;19.484;2022-12-11T00:04:03;8.17;;;4.60;;
19951;SDS011;10137;49.406;19.484;2022-12-11T00:06:31;6.97;;;4.03;;
19951;SDS011;10137;49.406;19.484;2022-12-11T00:08:58;6.67;;;3.97;;
19951;SDS011;10137;49.406;19.484;2022-12-11T00:11:26;5.57;;;3.50;;
19951;SDS011;10137;49.406;19.484;2022-12-11T00:13:53;7.03;;;3.87;;
19951;SDS011;10137;49.406;19.484;2022-12-11T00:16:20;6.47;;;3.90;;
19951;SDS011;10137;49.406;19.484;2022-12-11T00:18:47;6.60;;;3.50;;
19951;SDS011;10137;49.406;19.484;2022-12-11T00:21:14;5.77;;;3.70;;
19951;SDS011;10137;49.406;19.484;2022-12-11T00:23:42;5.83;;;4.20;;
19951;SDS011;10137;49.406;19.484;2022-12-11T00:26:11;6.33;;;4.20;;
19951;SDS011;10137;49.406;19.484;2022-12-11T00:28:40;6.17;;;3.77;;
19951;SDS011;10137;49.406;19.484;2022-12-11T00:31:08;7.00;;;3.90;;
19951;SDS011;10137;49.406;19.484;2022-12-11T00:33:38;17.17;;;7.50;;
19951;SDS011;10137;49.406;19.484;2022-12-11T00:36:09;10.67;;;5.07;;
19951;SDS011;10137;49.406;19.484;2022-12-11T00:38:38;9.00;;;4.57;;
19951;SDS011;10137;49.406;19.484;2022-12-11T00:41:06;8.07;;;4.70;;
19951;SDS011;10137;49.406;19.484;2022-12-11T00:43:33;12.20;;;6.33;;
19951;SDS011;10137;49.406;19.484;2022-12-11T00:46:00;14.10;;;6.37;;
19951;SDS011;10137;49.406;19.484;2022-12-11T00:48:29;15.33;;;6.97;;
19951;SDS011;10137;49.406;19.484;2022-12-11T00:50:56;13.33;;;6.90;;
19951;SDS011;10137;49.406;19.484;2022-12-11T00:53:23;7.40;;;3.90;;
19951;SDS011;10137;49.406;19.484;2022-12-11T00:55:50;9.83;;;5.50;;
19951;SDS011;10137;49.406;19.484;2022-12-11T00:58:19;8.70;;;4.47;;
19951;SDS011;10137;49.406;19.484;2022-12-11T01:00:46;6.80;;;3.83;;
19951;SDS011;10137;49.406;19.484;2022-12-11T01:03:14;5.90;;;3.70;;
19951;SDS011;10137;49.406;19.484;2022-12-11T01:05:49;5.50;;;3.30;;
19951;SDS011;10137;49.406;19.484;2022-12-11T01:08:17;5.60;;;3.67;;
19951;SDS011;10137;49.406;19.484;2022-12-11T01:10:44;6.23;;;3.80;;
19951;SDS011;10137;49.406;19.484;2022-12-11T01:13:12;8.07;;;4.13;;
19951;SDS011;10137;49.406;19.484;2022-12-11T01:15:41;5.20;;;3.43;;
19951;SDS011;10137;49.406;19.484;2022-12-11T01:18:09;6.93;;;4.20;;
19951;SDS011;10137;49.406;19.484;2022-12-11T01:20:38;6.60;;;3.93;;
19951;SDS011;10137;49.406;19.484;2022-12-11T01:23:07;6.93;;;4.30;;
19951;SDS011;10137;49.406;19.484;2022-12-11T01:25:37;6.43;;;3.90;;
19951;SDS011;10137;49.406;19.484;2022-12-11T01:28:04;5.63;;;3.83;;
19951;SDS011;10137;49.406;19.484;2022-12-11T01:30:32;6.50;;;3.77;;
19951;SDS011;10137;49.406;19.484;2022-12-11T01:33:01;5.97;;;3.57;;
19951;SDS011;10137;49.406;19.484;2022-12-11T01:35:28;6.23;;;3.60;;
19951;SDS011;10137;49.406;19.484;2022-12-11T01:37:55;6.20;;;3.43;;
19951;SDS011;10137;49.406;19.484;2022-12-11T01:40:23;5.87;;;3.60;;
19951;SDS011;10137;49.406;19.484;2022-12-11T01:42:50;5.57;;;3.70;;
19951;SDS011;10137;49.406;19.484;2022-12-11T01:48:10;6.57;;;3.93;;
19951;SDS011;10137;49.406;19.484;2022-12-11T01:50:40;5.30;;;3.30;;
19951;SDS011;10137;49.406;19.484;2022-12-11T01:53:14;6.33;;;3.93;;
19951;SDS011;10137;49.406;19.484;2022-12-11T01:55:45;6.07;;;3.97;;
19951;SDS011;10137;49.406;19.484;2022-12-11T01:58:13;6.93;;;4.33;;
19951;SDS011;10137;49.406;19.484;2022-12-11T02:00:43;7.67;;;4.57;;
19951;SDS011;10137;49.406;19.484;2022-12-11T02:03:12;6.60;;;4.13;;
19951;SDS011;10137;49.406;19.484;2022-12-11T02:05:39;7.50;;;4.30;;
19951;SDS011;10137;49.406;19.484;2022-12-11T02:08:06;6.73;;;4.87;;
19951;SDS011;10137;49.406;19.484;2022-12-11T02:10:47;7.30;;;4.40;;
19951;SDS011;10137;49.406;19.484;2022-12-11T02:13:24;6.27;;;4.23;;
19951;SDS011;10137;49.406;19.484;2022-12-11T02:15:58;6.83;;;4.60;;
19951;SDS011;10137;49.406;19.484;2022-12-11T02:18:32;5.80;;;3.70;;
19951;SDS011;10137;49.406;19.484;2022-12-11T02:21:05;6.53;;;4.33;;
19951;SDS011;10137;49.406;19.484;2022-12-11T02:23:52;7.30;;;4.60;;
19951;SDS011;10137;49.406;19.484;2022-12-11T02:26:46;6.97;;;4.60;;
19951;SDS011;10137;49.406;19.484;2022-12-11T02:29:32;7.17;;;4.50;;
19951;SDS011;10137;49.406;19.484;2022-12-11T02:32:03;5.47;;;3.57;;
19951;SDS011;10137;49.406;19.484;2022-12-11T02:34:36;8.57;;;4.13;;
19951;SDS011;10137;49.406;19.484;2022-12-11T02:37:09;5.73;;;4.00;;
19951;SDS011;10137;49.406;19.484;2022-12-11T02:39:40;6.53;;;4.20;;
19951;SDS011;10137;49.406;19.484;2022-12-11T02:42:10;4.83;;;3.80;;
19951;SDS011;10137;49.406;19.484;2022-12-11T02:44:40;5.33;;;3.67;;
19951;SDS011;10137;49.406;19.484;2022-12-11T02:47:10;6.43;;;3.60;;
19951;SDS011;10137;49.406;19.484;2022-12-11T02:49:39;5.57;;;3.80;;
19951;SDS011;10137;49.406;19.484;2022-12-11T02:52:08;6.57;;;4.00;;
19951;SDS011;10137;49.406;19.484;2022-12-11T02:54:38;4.87;;;3.47;;
19951;SDS011;10137;49.406;19.484;2022-12-11T02:57:07;6.50;;;3.77;;
19951;SDS011;10137;49.406;19.484;2022-12-11T02:59:37;7.40;;;3.83;;
19951;SDS011;10137;49.406;19.484;2022-12-11T03:02:08;5.80;;;3.57;;
19951;SDS011;10137;49.406;19.484;2022-12-11T03:04:37;5.60;;;3.30;;
19951;SDS011;10137;49.406;19.484;2022-12-11T03:07:06;5.60;;;3.37;;
19951;SDS011;10137;49.406;19.484;2022-12-11T03:09:37;5.40;;;3.20;;
19951;SDS011;10137;49.406;19.484;2022-12-11T03:12:05;5.77;;;3.10;;
19951;SDS011;10137;49.406;19.484;2022-12-11T03:14:33;5.30;;;3.50;;
19951;SDS011;10137;49.406;19.484;2022-12-11T03:17:04;4.37;;;3.00;;
19951;SDS011;10137;49.406;19.484;2022-12-11T03:19:37;5.00;;;3.50;;
19951;SDS011;10137;49.406;19.484;2022-12-11T03:22:08;3.77;;;2.90;;
19951;SDS011;10137;49.406;19.484;2022-12-11T03:24:38;3.57;;;2.50;;
19951;SDS011;10137;49.406;19.484;2022-12-11T03:27:12;3.53;;;2.70;;
19951;SDS011;10137;49.406;19.484;2022-12-11T03:29:45;4.30;;;3.10;;
19951;SDS011;10137;49.406;19.484;2022-12-11T03:32:22;4.67;;;3.07;;
19951;SDS011;10137;49.406;19.484;2022-12-11T03:34:54;5.03;;;3.77;;
19951;SDS011;10137;49.406;19.484;2022-12-11T03:37:26;9.47;;;4.60;;
19951;SDS011;10137;49.406;19.484;2022-12-11T03:39:58;9.53;;;4.90;;
19951;SDS011;10137;49.406;19.484;2022-12-11T03:42:29;7.13;;;4.30;;
19951;SDS011;10137;49.406;19.484;2022-12-11T03:44:57;9.07;;;5.50;;
19951;SDS011;10137;49.406;19.484;2022-12-11T03:47:28;6.60;;;4.53;;
19951;SDS011;10137;49.406;19.484;2022-12-11T03:49:56;10.43;;;5.00;;
19951;SDS011;10137;49.406;19.484;2022-12-11T03:52:25;15.50;;;8.17;;
19951;SDS011;10137;49.406;19.484;2022-12-11T03:54:53;6.57;;;4.10;;
19951;SDS011;10137;49.406;19.484;2022-12-11T03:57:27;13.60;;;8.20;;
19951;SDS011;10137;49.406;19.484;2022-12-11T03:59:57;7.00;;;4.13;;
19951;SDS011;10137;49.406;19.484;2022-12-11T04:02:24;12.47;;;5.67;;
19951;SDS011;10137;49.406;19.484;2022-12-11T04:04:53;14.10;;;6.20;;
19951;SDS011;10137;49.406;19.484;2022-12-11T04:07:20;9.23;;;4.83;;
19951;SDS011;10137;49.406;19.484;2022-12-11T04:09:47;6.07;;;3.50;;
19951;SDS011;10137;49.406;19.484;2022-12-11T04:12:14;8.53;;;5.20;;
19951;SDS011;10137;49.406;19.484;2022-12-11T04:14:41;14.23;;;6.73;;
19951;SDS011;10137;49.406;19.484;2022-12-11T04:17:30;11.57;;;5.83;;
19951;SDS011;10137;49.406;19.484;2022-12-11T04:20:19;10.87;;;6.77;;
19951;SDS011;10137;49.406;19.484;2022-12-11T04:23:04;7.07;;;4.70;;
19951;SDS011;10137;49.406;19.484;2022-12-11T04:25:49;13.37;;;6.67;;
19951;SDS011;10137;49.406;19.484;2022-12-11T04:28:17;13.40;;;6.50;;
19951;SDS011;10137;49.406;19.484;2022-12-11T04:30:47;9.87;;;5.13;;
19951;SDS011;10137;49.406;19.484;2022-12-11T04:33:14;6.93;;;4.63;;
19951;SDS011;10137;49.406;19.484;2022-12-11T04:35:43;9.00;;;5.10;;
19951;SDS011;10137;49.406;19.484;2022-12-11T04:38:10;15.27;;;7.30;;
19951;SDS011;10137;49.406;19.484;2022-12-11T04:40:37;15.03;;;7.00;;
19951;SDS011;10137;49.406;19.484;2022-12-11T04:43:04;8.07;;;4.77;;
19951;SDS011;10137;49.406;19.484;2022-12-11T04:45:31;10.87;;;7.53;;
19951;SDS011;10137;49.406;19.484;2022-12-11T04:47:58;6.43;;;4.47;;
19951;SDS011;10137;49.406;19.484;2022-12-11T04:50:25;5.90;;;4.70;;
19951;SDS011;10137;49.406;19.484;2022-12-11T04:52:54;5.30;;;3.40;;
19951;SDS011;10137;49.406;19.484;2022-12-11T04:55:22;4.80;;;3.47;;
19951;SDS011;10137;49.406;19.484;2022-12-11T04:57:49;5.30;;;3.83;;
19951;SDS011;10137;49.406;19.484;2022-12-11T05:00:16;5.63;;;3.90;;
19951;SDS011;10137;49.406;19.484;2022-12-11T05:02:43;7.77;;;4.43;;
19951;SDS011;10137;49.406;19.484;2022-12-11T05:05:11;5.47;;;3.63;;
19951;SDS011;10137;49.406;19.484;2022-12-11T05:07:38;6.07;;;3.90;;
19951;SDS011;10137;49.406;19.484;2022-12-11T05:10:08;6.00;;;4.40;;
19951;SDS011;10137;49.406;19.484;2022-12-11T05:12:35;4.23;;;3.47;;
19951;SDS011;10137;49.406;19.484;2022-12-11T05:15:02;5.10;;;3.47;;
19951;SDS011;10137;49.406;19.484;2022-12-11T05:17:30;5.43;;;3.80;;
19951;SDS011;10137;49.406;19.484;2022-12-11T05:19:57;4.20;;;3.07;;
19951;SDS011;10137;49.406;19.484;2022-12-11T05:22:24;4.53;;;2.40;;
19951;SDS011;10137;49.406;19.484;2022-12-11T05:24:51;3.27;;;2.50;;
19951;SDS011;10137;49.406;19.484;2022-12-11T05:27:19;4.63;;;3.33;;
19951;SDS011;10137;49.406;19.484;2022-12-11T05:29:46;3.90;;;2.97;;
19951;SDS011;10137;49.406;19.484;2022-12-11T05:32:13;4.30;;;2.93;;
19951;SDS011;10137;49.406;19.484;2022-12-11T05:34:40;4.93;;;3.60;;
19951;SDS011;10137;49.406;19.484;2022-12-11T05:37:08;4.37;;;3.03;;
19951;SDS011;10137;49.406;19.484;2022-12-11T05:39:36;5.67;;;3.37;;
19951;SDS011;10137;49.406;19.484;2022-12-11T05:42:03;3.60;;;2.60;;
19951;SDS011;10137;49.406;19.484;2022-12-11T05:44:31;5.10;;;3.73;;
19951;SDS011;10137;49.406;19.484;2022-12-11T05:46:59;4.60;;;3.03;;
19951;SDS011;10137;49.406;19.484;2022-12-11T05:49:26;4.20;;;3.10;;
19951;SDS011;10137;49.406;19.484;2022-12-11T05:51:53;6.77;;;4.20;;
19951;SDS011;10137;49.406;19.484;2022-12-11T05:54:20;7.60;;;4.73;;
19951;SDS011;10137;49.406;19.484;2022-12-11T05:56:48;15.57;;;7.30;;
19951;SDS011;10137;49.406;19.484;2022-12-11T05:59:15;16.17;;;7.67;;
19951;SDS011;10137;49.406;19.484;2022-12-11T06:01:45;13.20;;;5.50;;
19951;SDS011;10137;49.406;19.484;2022-12-11T06:04:12;8.40;;;5.07;;
19951;SDS011;10137;49.406;19.484;2022-12-11T06:06:39;8.83;;;4.27;;
19951;SDS011;10137;49.406;19.484;2022-12-11T06:09:10;10.67;;;4.87;;
19951;SDS011;10137;49.406;19.484;2022-12-11T06:11:39;15.77;;;6.83;;
19951;SDS011;10137;49.406;19.484;2022-12-11T06:14:06;14.63;;;6.80;;
19951;SDS011;10137;49.406;19.484;2022-12-11T06:16:35;9.53;;;5.20;;
19951;SDS011;10137;49.406;19.484;2022-12-11T06:19:04;11.37;;;5.90;;
19951;SDS011;10137;49.406;19.484;2022-12-11T06:21:32;20.03;;;8.17;;
19951;SDS011;10137;49.406;19.484;2022-12-11T06:24:00;29.53;;;10.67;;
19951;SDS011;10137;49.406;19.484;2022-12-11T06:26:30;22.20;;;11.80;;
19951;SDS011;10137;49.406;19.484;2022-12-11T06:28:57;10.00;;;5.37;;
19951;SDS011;10137;49.406;19.484;2022-12-11T06:31:24;6.77;;;4.80;;
19951;SDS011;10137;49.406;19.484;2022-12-11T06:33:51;10.50;;;5.03;;
19951;SDS011;10137;49.406;19.484;2022-12-11T06:36:21;10.27;;;4.87;;
19951;SDS011;10137;49.406;19.484;2022-12-11T06:38:50;7.80;;;4.10;;
19951;SDS011;10137;49.406;19.484;2022-12-11T06:41:17;7.10;;;3.60;;
19951;SDS011;10137;49.406;19.484;2022-12-11T06:43:44;5.43;;;3.70;;
19951;SDS011;10137;49.406;19.484;2022-12-11T06:46:13;6.57;;;4.17;;
19951;SDS011;10137;49.406;19.484;2022-12-11T06:48:41;6.57;;;4.03;;
19951;SDS011;10137;49.406;19.484;2022-12-11T06:51:09;5.60;;;3.90;;
19951;SDS011;10137;49.406;19.484;2022-12-11T06:53:39;6.87;;;4.17;;
19951;SDS011;10137;49.406;19.484;2022-12-11T06:56:09;7.13;;;4.00;;
19951;SDS011;10137;49.406;19.484;2022-12-11T06:58:40;7.33;;;4.60;;
19951;SDS011;10137;49.406;19.484;2022-12-11T07:01:17;7.03;;;4.20;;
19951;SDS011;10137;49.406;19.484;2022-12-11T07:03:47;8.37;;;4.33;;
19951;SDS011;10137;49.406;19.484;2022-12-11T07:06:15;276.23;;;79.33;;
19951;SDS011;10137;49.406;19.484;2022-12-11T07:08:43;32.93;;;13.80;;
19951;SDS011;10137;49.406;19.484;2022-12-11T07:11:11;14.20;;;9.23;;
19951;SDS011;10137;49.406;19.484;2022-12-11T07:13:39;13.50;;;9.30;;
19951;SDS011;10137;49.406;19.484;2022-12-11T07:16:07;10.90;;;7.40;;
19951;SDS011;10137;49.406;19.484;2022-12-11T07:18:35;7.77;;;4.77;;
19951;SDS011;10137;49.406;19.484;2022-12-11T07:21:03;7.97;;;5.23;;
19951;SDS011;10137;49.406;19.484;2022-12-11T07:23:30;8.60;;;5.67;;
19951;SDS011;10137;49.406;19.484;2022-12-11T07:26:02;9.10;;;5.30;;
19951;SDS011;10137;49.406;19.484;2022-12-11T07:28:29;5.00;;;3.43;;
19951;SDS011;10137;49.406;19.484;2022-12-11T07:30:56;6.40;;;4.30;;
19951;SDS011;10137;49.406;19.484;2022-12-11T07:33:23;13.07;;;8.20;;
19951;SDS011;10137;49.406;19.484;2022-12-11T07:35:51;10.70;;;8.10;;
19951;SDS011;10137;49.406;19.484;2022-12-11T07:38:18;4.27;;;3.47;;
19951;SDS011;10137;49.406;19.484;2022-12-11T07:40:45;6.80;;;4.07;;
19951;SDS011;10137;49.406;19.484;2022-12-11T07:43:13;5.43;;;3.57;;
19951;SDS011;10137;49.406;19.484;2022-12-11T07:45:40;5.50;;;3.53;;
19951;SDS011;10137;49.406;19.484;2022-12-11T07:48:07;10.57;;;5.40;;
19951;SDS011;10137;49.406;19.484;2022-12-11T07:50:34;5.27;;;3.80;;
19951;SDS011;10137;49.406;19.484;2022-12-11T07:53:01;6.23;;;4.23;;
19951;SDS011;10137;49.406;19.484;2022-12-11T07:55:28;7.97;;;4.37;;
19951;SDS011;10137;49.406;19.484;2022-12-11T07:57:55;11.87;;;5.43;;
19951;SDS011;10137;49.406;19.484;2022-12-11T08:00:23;24.50;;;9.77;;
19951;SDS011;10137;49.406;19.484;2022-12-11T08:02:50;23.47;;;11.23;;
19951;SDS011;10137;49.406;19.484;2022-12-11T08:05:17;22.17;;;10.97;;
19951;SDS011;10137;49.406;19.484;2022-12-11T08:07:44;22.73;;;9.63;;
19951;SDS011;10137;49.406;19.484;2022-12-11T08:10:11;17.57;;;8.53;;
19951;SDS011;10137;49.406;19.484;2022-12-11T08:12:38;15.93;;;8.10;;
19951;SDS011;10137;49.406;19.484;2022-12-11T08:15:06;13.50;;;6.87;;
19951;SDS011;10137;49.406;19.484;2022-12-11T08:17:41;15.07;;;6.87;;
19951;SDS011;10137;49.406;19.484;2022-12-11T08:20:09;21.00;;;7.87;;
19951;SDS011;10137;49.406;19.484;2022-12-11T08:22:40;19.10;;;7.63;;
19951;SDS011;10137;49.406;19.484;2022-12-11T08:25:08;12.63;;;6.10;;
19951;SDS011;10137;49.406;19.484;2022-12-11T08:27:36;9.57;;;5.63;;
19951;SDS011;10137;49.406;19.484;2022-12-11T08:30:05;11.73;;;5.90;;
19951;SDS011;10137;49.406;19.484;2022-12-11T08:32:47;18.87;;;8.90;;
19951;SDS011;10137;49.406;19.484;2022-12-11T08:35:19;15.10;;;7.93;;
19951;SDS011;10137;49.406;19.484;2022-12-11T08:37:48;24.83;;;11.50;;
19951;SDS011;10137;49.406;19.484;2022-12-11T08:40:15;41.90;;;18.50;;
19951;SDS011;10137;49.406;19.484;2022-12-11T08:42:42;129.03;;;52.47;;
19951;SDS011;10137;49.406;19.484;2022-12-11T08:45:09;187.33;;;69.90;;
19951;SDS011;10137;49.406;19.484;2022-12-11T08:47:37;94.87;;;38.47;;
19951;SDS011;10137;49.406;19.484;2022-12-11T08:50:05;192.53;;;62.73;;
19951;SDS011;10137;49.406;19.484;2022-12-11T08:52:33;59.63;;;24.43;;
19951;SDS011;10137;49.406;19.484;2022-12-11T08:55:00;20.77;;;9.97;;
19951;SDS011;10137;49.406;19.484;2022-12-11T08:57:26;32.73;;;15.20;;
19951;SDS011;10137;49.406;19.484;2022-12-11T08:59:53;28.43;;;14.40;;
19951;SDS011;10137;49.406;19.484;2022-12-11T09:02:20;12.97;;;8.77;;
19951;SDS011;10137;49.406;19.484;2022-12-11T09:04:49;19.13;;;9.50;;
19951;SDS011;10137;49.406;19.484;2022-12-11T09:07:16;15.17;;;7.07;;
19951;SDS011;10137;49.406;19.484;2022-12-11T09:09:43;12.27;;;7.33;;
19951;SDS011;10137;49.406;19.484;2022-12-11T09:12:10;12.73;;;6.33;;
19951;SDS011;10137;49.406;19.484;2022-12-11T09:14:40;9.50;;;5.50;;
19951;SDS011;10137;49.406;19.484;2022-12-11T09:17:08;12.07;;;5.90;;
19951;SDS011;10137;49.406;19.484;2022-12-11T09:19:36;8.07;;;5.00;;
19951;SDS011;10137;49.406;19.484;2022-12-11T09:22:06;6.33;;;4.30;;
19951;SDS011;10137;49.406;19.484;2022-12-11T09:24:36;6.13;;;4.10;;
19951;SDS011;10137;49.406;19.484;2022-12-11T09:27:05;7.53;;;4.83;;
19951;SDS011;10137;49.406;19.484;2022-12-11T09:29:33;8.13;;;4.60;;
19951;SDS011;10137;49.406;19.484;2022-12-11T09:32:01;7.93;;;4.33;;
19951;SDS011;10137;49.406;19.484;2022-12-11T09:34:28;15.00;;;10.80;;
19951;SDS011;10137;49.406;19.484;2022-12-11T09:36:56;8.73;;;6.00;;
19951;SDS011;10137;49.406;19.484;2022-12-11T09:39:30;11.97;;;6.93;;
19951;SDS011;10137;49.406;19.484;2022-12-11T09:41:59;8.73;;;5.43;;
19951;SDS011;10137;49.406;19.484;2022-12-11T09:44:33;8.43;;;5.40;;
19951;SDS011;10137;49.406;19.484;2022-12-11T09:47:20;8.23;;;5.30;;
19951;SDS011;10137;49.406;19.484;2022-12-11T09:49:53;9.77;;;5.50;;
19951;SDS011;10137;49.406;19.484;2022-12-11T09:52:31;10.13;;;5.83;;
19951;SDS011;10137;49.406;19.484;2022-12-11T09:55:09;7.07;;;4.70;;
19951;SDS011;10137;49.406;19.484;2022-12-11T09:57:43;7.63;;;4.60;;
19951;SDS011;10137;49.406;19.484;2022-12-11T10:00:19;11.03;;;5.67;;
19951;SDS011;10137;49.406;19.484;2022-12-11T10:05:51;57.47;;;26.73;;
19951;SDS011;10137;49.406;19.484;2022-12-11T10:08:26;59.53;;;29.00;;
19951;SDS011;10137;49.406;19.484;2022-12-11T10:11:12;46.00;;;18.93;;
19951;SDS011;10137;49.406;19.484;2022-12-11T10:14:27;50.37;;;20.07;;
19951;SDS011;10137;49.406;19.484;2022-12-11T10:17:09;22.67;;;11.17;;
19951;SDS011;10137;49.406;19.484;2022-12-11T10:19:42;12.67;;;6.73;;
19951;SDS011;10137;49.406;19.484;2022-12-11T10:22:12;12.30;;;7.40;;
19951;SDS011;10137;49.406;19.484;2022-12-11T10:24:48;17.00;;;8.23;;
19951;SDS011;10137;49.406;19.484;2022-12-11T10:27:27;15.47;;;8.43;;
19951;SDS011;10137;49.406;19.484;2022-12-11T10:30:00;12.63;;;5.97;;
19951;SDS011;10137;49.406;19.484;2022-12-11T10:32:36;13.77;;;7.20;;
19951;SDS011;10137;49.406;19.484;2022-12-11T10:35:14;14.10;;;7.67;;
19951;SDS011;10137;49.406;19.484;2022-12-11T10:37:45;10.80;;;6.27;;
19951;SDS011;10137;49.406;19.484;2022-12-11T10:40:16;11.57;;;5.87;;
19951;SDS011;10137;49.406;19.484;2022-12-11T10:42:52;12.43;;;7.13;;
19951;SDS011;10137;49.406;19.484;2022-12-11T10:45:20;17.77;;;8.53;;
19951;SDS011;10137;49.406;19.484;2022-12-11T10:47:48;20.93;;;10.33;;
19951;SDS011;10137;49.406;19.484;2022-12-11T10:50:22;15.70;;;8.20;;
19951;SDS011;10137;49.406;19.484;2022-12-11T10:52:52;20.30;;;10.23;;
19951;SDS011;10137;49.406;19.484;2022-12-11T10:55:21;17.97;;;8.70;;
19951;SDS011;10137;49.406;19.484;2022-12-11T10:57:58;20.50;;;8.97;;
19951;SDS011;10137;49.406;19.484;2022-12-11T11:00:30;39.10;;;15.30;;
19951;SDS011;10137;49.406;19.484;2022-12-11T11:03:02;30.43;;;13.60;;
19951;SDS011;10137;49.406;19.484;2022-12-11T11:05:45;20.07;;;9.90;;
19951;SDS011;10137;49.406;19.484;2022-12-11T11:08:16;31.97;;;16.97;;
19951;SDS011;10137;49.406;19.484;2022-12-11T11:10:50;11.47;;;6.83;;
19951;SDS011;10137;49.406;19.484;2022-12-11T11:13:22;9.37;;;5.87;;
19951;SDS011;10137;49.406;19.484;2022-12-11T11:15:57;8.10;;;5.00;;
19951;SDS011;10137;49.406;19.484;2022-12-11T11:18:27;9.17;;;5.53;;
19951;SDS011;10137;49.406;19.484;2022-12-11T11:20:57;11.13;;;5.57;;
19951;SDS011;10137;49.406;19.484;2022-12-11T11:23:26;12.40;;;6.33;;
19951;SDS011;10137;49.406;19.484;2022-12-11T11:25:55;18.20;;;12.20;;
19951;SDS011;10137;49.406;19.484;2022-12-11T11:28:26;13.87;;;6.80;;
19951;SDS011;10137;49.406;19.484;2022-12-11T11:30:57;9.60;;;5.87;;
19951;SDS011;10137;49.406;19.484;2022-12-11T11:33:27;14.67;;;6.80;;
19951;SDS011;10137;49.406;19.484;2022-12-11T11:35:57;10.43;;;6.43;;
19951;SDS011;10137;49.406;19.484;2022-12-11T11:38:27;14.53;;;7.60;;
19951;SDS011;10137;49.406;19.484;2022-12-11T11:40:58;12.30;;;6.73;;
19951;SDS011;10137;49.406;19.484;2022-12-11T11:43:35;15.53;;;8.83;;
19951;SDS011;10137;49.406;19.484;2022-12-11T11:46:07;15.03;;;7.47;;
19951;SDS011;10137;49.406;19.484;2022-12-11T11:48:42;15.83;;;7.83;;
19951;SDS011;10137;49.406;19.484;2022-12-11T11:51:15;16.03;;;8.40;;
19951;SDS011;10137;49.406;19.484;2022-12-11T11:53:48;13.47;;;7.20;;
19951;SDS011;10137;49.406;19.484;2022-12-11T11:56:18;15.23;;;8.37;;
19951;SDS011;10137;49.406;19.484;2022-12-11T11:58:51;19.00;;;9.70;;
19951;SDS011;10137;49.406;19.484;2022-12-11T12:01:23;17.13;;;9.30;;
19951;SDS011;10137;49.406;19.484;2022-12-11T12:03:51;18.20;;;8.53;;
19951;SDS011;10137;49.406;19.484;2022-12-11T12:06:20;16.53;;;9.47;;
19951;SDS011;10137;49.406;19.484;2022-12-11T12:09:01;14.53;;;8.83;;
19951;SDS011;10137;49.406;19.484;2022-12-11T12:11:38;14.23;;;8.00;;
19951;SDS011;10137;49.406;19.484;2022-12-11T12:14:14;13.70;;;8.43;;
19951;SDS011;10137;49.406;19.484;2022-12-11T12:16:50;16.53;;;8.77;;
19951;SDS011;10137;49.406;19.484;2022-12-11T12:19:30;30.60;;;15.37;;
19951;SDS011;10137;49.406;19.484;2022-12-11T12:22:08;23.33;;;11.97;;
19951;SDS011;10137;49.406;19.484;2022-12-11T12:24:48;24.23;;;12.07;;
19951;SDS011;10137;49.406;19.484;2022-12-11T12:27:27;16.70;;;9.07;;
19951;SDS011;10137;49.406;19.484;2022-12-11T12:30:03;29.40;;;17.33;;
19951;SDS011;10137;49.406;19.484;2022-12-11T12:32:38;25.27;;;15.20;;
19951;SDS011;10137;49.406;19.484;2022-12-11T12:35:14;22.30;;;11.73;;
19951;SDS011;10137;49.406;19.484;2022-12-11T12:37:52;16.50;;;9.43;;
19951;SDS011;10137;49.406;19.484;2022-12-11T12:40:33;18.40;;;9.93;;
19951;SDS011;10137;49.406;19.484;2022-12-11T12:43:09;13.53;;;8.57;;
19951;SDS011;10137;49.406;19.484;2022-12-11T12:45:56;15.93;;;9.17;;
19951;SDS011;10137;49.406;19.484;2022-12-11T12:48:29;13.83;;;7.57;;
19951;SDS011;10137;49.406;19.484;2022-12-11T12:50:57;14.50;;;8.17;;
19951;SDS011;10137;49.406;19.484;2022-12-11T12:53:25;20.53;;;10.47;;
19951;SDS011;10137;49.406;19.484;2022-12-11T12:55:56;15.67;;;8.67;;
19951;SDS011;10137;49.406;19.484;2022-12-11T12:58:25;20.07;;;10.17;;
19951;SDS011;10137;49.406;19.484;2022-12-11T13:00:55;21.27;;;10.83;;
19951;SDS011;10137;49.406;19.484;2022-12-11T13:03:34;18.73;;;10.27;;
19951;SDS011;10137;49.406;19.484;2022-12-11T13:06:13;19.37;;;9.60;;
19951;SDS011;10137;49.406;19.484;2022-12-11T13:08:41;19.13;;;10.97;;
19951;SDS011;10137;49.406;19.484;2022-12-11T13:11:13;16.10;;;9.33;;
19951;SDS011;10137;49.406;19.484;2022-12-11T13:13:43;19.50;;;10.37;;
19951;SDS011;10137;49.406;19.484;2022-12-11T13:19:14;23.53;;;13.00;;
19951;SDS011;10137;49.406;19.484;2022-12-11T13:21:53;17.50;;;9.30;;
19951;SDS011;10137;49.406;19.484;2022-12-11T13:24:25;18.43;;;10.10;;
19951;SDS011;10137;49.406;19.484;2022-12-11T13:26:53;23.80;;;11.87;;
19951;SDS011;10137;49.406;19.484;2022-12-11T13:29:27;20.47;;;11.17;;
19951;SDS011;10137;49.406;19.484;2022-12-11T13:31:57;25.40;;;14.50;;
19951;SDS011;10137;49.406;19.484;2022-12-11T13:34:26;23.87;;;12.87;;
19951;SDS011;10137;49.406;19.484;2022-12-11T13:36:56;21.77;;;11.47;;
19951;SDS011;10137;49.406;19.484;2022-12-11T13:39:24;23.13;;;11.83;;
19951;SDS011;10137;49.406;19.484;2022-12-11T13:41:53;21.60;;;12.17;;
19951;SDS011;10137;49.406;19.484;2022-12-11T13:44:23;23.93;;;13.80;;
19951;SDS011;10137;49.406;19.484;2022-12-11T13:46:53;25.27;;;14.17;;
19951;SDS011;10137;49.406;19.484;2022-12-11T13:49:24;27.87;;;16.50;;
19951;SDS011;10137;49.406;19.484;2022-12-11T13:51:54;31.47;;;18.00;;
19951;SDS011;10137;49.406;19.484;2022-12-11T13:54:22;28.13;;;14.53;;
19951;SDS011;10137;49.406;19.484;2022-12-11T13:56:57;22.80;;;11.10;;
19951;SDS011;10137;49.406;19.484;2022-12-11T13:59:28;18.73;;;10.47;;
19951;SDS011;10137;49.406;19.484;2022-12-11T14:01:59;15.50;;;9.17;;
19951;SDS011;10137;49.406;19.484;2022-12-11T14:04:30;18.47;;;8.70;;
19951;SDS011;10137;49.406;19.484;2022-12-11T14:06:59;17.90;;;9.80;;
19951;SDS011;10137;49.406;19.484;2022-12-11T14:09:27;15.10;;;8.30;;
19951;SDS011;10137;49.406;19.484;2022-12-11T14:11:54;19.43;;;11.10;;
19951;SDS011;10137;49.406;19.484;2022-12-11T14:14:25;21.07;;;10.27;;
19951;SDS011;10137;49.406;19.484;2022-12-11T14:17:01;17.10;;;8.80;;
19951;SDS011;10137;49.406;19.484;2022-12-11T14:19:29;18.77;;;9.23;;
19951;SDS011;10137;49.406;19.484;2022-12-11T14:21:59;14.63;;;8.03;;
19951;SDS011;10137;49.406;19.484;2022-12-11T14:24:28;21.10;;;9.57;;
19951;SDS011;10137;49.406;19.484;2022-12-11T14:26:56;26.37;;;12.03;;
19951;SDS011;10137;49.406;19.484;2022-12-11T14:29:25;38.07;;;15.67;;
19951;SDS011;10137;49.406;19.484;2022-12-11T14:31:55;24.60;;;10.60;;
19951;SDS011;10137;49.406;19.484;2022-12-11T14:34:27;32.40;;;14.13;;
19951;SDS011;10137;49.406;19.484;2022-12-11T14:36:58;44.13;;;20.17;;
19951;SDS011;10137;49.406;19.484;2022-12-11T14:39:29;51.53;;;21.13;;
19951;SDS011;10137;49.406;19.484;2022-12-11T14:41:59;39.83;;;17.13;;
19951;SDS011;10137;49.406;19.484;2022-12-11T14:44:30;36.37;;;16.13;;
19951;SDS011;10137;49.406;19.484;2022-12-11T14:47:01;36.23;;;15.30;;
19951;SDS011;10137;49.406;19.484;2022-12-11T14:49:34;23.97;;;11.60;;
19951;SDS011;10137;49.406;19.484;2022-12-11T14:52:10;27.33;;;12.47;;
19951;SDS011;10137;49.406;19.484;2022-12-11T14:54:42;20.23;;;9.50;;